aviador You're here:

PASM Decoded Metar

SAINT MARYS in AK, USA
Report Time2017-08-19 10:56:00
UTC Time2017-08-19 11:15:31
Flight Rules vfr VFR
Wind290° at 03 kt
W.Decomp.*RWY 24: 2.4 kt HW 1.8 kt RCW
RWY 35: 0.9 kt HW 2.9 kt LCW
W.Rank290° ranks 29
Current wind is below 290° avg. (7.8)
Visibility9999 m
Phenomena:N/A
Clouds:N/A
Expected CloudBase > 1,200 ft AGL from Temp-Dew spread
CeilingNone
Temp06°C (ISA -8)
Dew Point03°C (81% RH)
AAT3.4°C
QNH1011 hPa
Density Alt-538 ft
Elevation302 ft
Report Wrong Elevation
Raw Report
PASM 191056Z AUTO 29003KT 10SM CLR 06/03 A2986 RMK AO2 SLP129
T00560033=

Extra information for PASM:More info

Metar Taf Metar & Taf Last 4 Metars F.Rules Stats Wind Profile Meteogram Temp Stats Airport Information Weather charts Add Link Nearby VenuesMetar ALERT Operation Metar Decoded Social comments

AIRNAV info for PASM